Terminal Aerodrome Forecast
Issued by NWS Jacksonville, FL

Home | Current Version | Previous Version | Text Only | Print | Product List | Glossary On
Versions: 1 2 3 4 5 6 7 8 9 10 11 12 13 14 15 16 17 18 19
000
FTUS42 KJAX 281700
TAFGNV
TAF
KGNV 281720Z 2818/2918 22006KT P6SM SCT025 BKN250
      TEMPO 2818/2822 BKN025
     FM282200 21004KT 5SM BR SCT010
      TEMPO 2822/2902 2SM BR BKN005
     FM290200 21002KT 1/2SM FG OVC001
     FM291500 21010KT P6SM VCSH BKN015 OVC030=

USA.gov is the U.S. government's official web portal to all federal, state and local government web resources and services.